»·PEaware :: CWG996 KDAL-KDCA

CWG996 :: KDAL-KDCA

FLIGHT INFORMATION

Flight Status: Arrived
Operator: Unknown
More flights by this operator :: More flights under this callsign
Pilot: Andrew J. (13363)
Aircraft: Unknown
(LEGA)
More flights by this aircraft type
Origin: KDAL Dallas Love
United States
Destination: KDCA Ronald Reagan Washington Natl
United States
More flights between these airports :: More routes between these airports
Route: LNDRE4 LOOSE MEM J42 BKW TRUPS4
File this flight plan on PilotEdge
Remarks: RMK / SIMBRIEF
Altitude:
(Current/Filed)
39,000ft
Speed:
(Current/Filed)
431kts
Departed: 25-May-19 10:35 PM
Arrived: 26-May-19 01:01 AM
Distance/Time
Traveled:
1026nm/2:25
Distance/Time
To Go:
Arrived

Flight Plot

Page will automatically refresh every two minutes.

Flight plan parsing failed; only flown route is shown


Map Options




Map Legend


Flown Route
Filed Route
Departure Airport
Arrival Airport
Navaid (VOR, NDB)
Fix

Horizontal Profiles

Position Reports

Time Latitude Longitude Heading Altitude Ground
Speed
25-May-19 22:10 32.851637 -96.847100 0 488ft 0kts
25-May-19 22:11 32.851637 -96.847100 0 488ft 0kts
25-May-19 22:12 32.851637 -96.847100 0 488ft 0kts
25-May-19 22:13 32.851637 -96.847100 0 488ft 0kts
25-May-19 22:14 32.851637 -96.847100 0 488ft 0kts
25-May-19 22:15 32.851637 -96.847100 0 488ft 0kts
25-May-19 22:16 32.851637 -96.847100 0 488ft 0kts
25-May-19 22:17 32.851637 -96.847100 0 488ft 0kts
25-May-19 22:18 32.851637 -96.847100 0 488ft 0kts
25-May-19 22:19 32.851637 -96.847100 0 488ft 0kts
25-May-19 22:20 32.851637 -96.847100 0 488ft 0kts
25-May-19 22:21 32.851637 -96.847100 0 488ft 0kts
25-May-19 22:22 32.851637 -96.847100 0 488ft 0kts
25-May-19 22:23 32.851637 -96.847100 0 488ft 0kts
25-May-19 22:24 32.851638 -96.847100 0 488ft 0kts
25-May-19 22:25 32.851638 -96.847100 0 488ft 0kts
25-May-19 22:26 32.851638 -96.847100 0 488ft 0kts
25-May-19 22:27 32.851638 -96.847100 0 488ft 0kts
25-May-19 22:28 32.851306 -96.847560 198 487ft 9kts
25-May-19 22:29 32.849111 -96.852477 224 479ft 22kts
25-May-19 22:30 32.848994 -96.855741 263 476ft 9kts
25-May-19 22:31 32.850030 -96.859385 316 473ft 13kts
25-May-19 22:32 32.852166 -96.862224 241 465ft 2kts
25-May-19 22:33 32.850958 -96.863045 135 464ft 2kts
25-May-19 22:34 32.839575 -96.849821 136 601ft 149kts
25-May-19 22:35 32.808672 -96.812507 137 3741ft 167kts
25-May-19 22:36 32.764197 -96.756429 138 6872ft 246kts
25-May-19 22:37 32.712352 -96.696173 138 10231ft 275kts
25-May-19 22:38 32.682205 -96.606925 93 12625ft 342kts
25-May-19 22:39 32.713927 -96.505141 31 15574ft 360kts
25-May-19 22:40 32.794386 -96.430449 36 18602ft 375kts
25-May-19 22:41 32.875628 -96.353830 36 21718ft 375kts
25-May-19 22:42 32.925578 -96.246173 70 24313ft 377kts
25-May-19 22:43 32.963315 -96.129667 69 26729ft 376kts
25-May-19 22:44 33.000821 -96.013460 69 28829ft 374kts
25-May-19 22:45 33.037814 -95.898397 68 30708ft 371kts
25-May-19 22:46 33.074727 -95.783381 67 32295ft 371kts
25-May-19 22:47 33.111409 -95.668982 66 33678ft 370kts
25-May-19 22:48 33.148082 -95.554216 66 34944ft 368kts
25-May-19 22:49 33.183987 -95.441386 65 36130ft 362kts
25-May-19 22:50 33.219563 -95.329207 66 37060ft 360kts
25-May-19 22:51 33.256063 -95.213636 66 37133ft 382kts
25-May-19 22:52 33.293987 -95.093092 66 37129ft 391kts
25-May-19 22:53 33.332992 -94.968645 66 37135ft 408kts
25-May-19 22:54 33.373632 -94.838451 66 37136ft 428kts
25-May-19 22:55 33.415995 -94.702082 67 37137ft 448kts
25-May-19 22:56 33.460187 -94.559197 67 37136ft 468kts
25-May-19 22:57 33.506146 -94.409871 67 37131ft 487kts
25-May-19 22:58 33.552701 -94.257709 68 37113ft 484kts
25-May-19 22:59 33.598082 -94.105636 68 37109ft 484kts
25-May-19 23:00 33.643119 -93.953902 68 37117ft 483kts
25-May-19 23:01 33.688011 -93.801863 68 37129ft 483kts
25-May-19 23:02 33.732659 -93.649872 68 37130ft 483kts
25-May-19 23:03 33.776995 -93.498154 68 37131ft 481kts
25-May-19 23:04 33.820748 -93.347627 68 37133ft 481kts
25-May-19 23:05 33.864623 -93.195935 68 37126ft 480kts
25-May-19 23:06 33.911263 -93.045678 62 37128ft 476kts
25-May-19 23:07 33.966014 -92.900959 62 37121ft 475kts
25-May-19 23:08 34.020483 -92.755841 63 37120ft 478kts
25-May-19 23:09 34.074959 -92.609980 63 37120ft 476kts
25-May-19 23:10 34.128769 -92.465290 63 37127ft 475kts
25-May-19 23:11 34.182768 -92.319475 63 37122ft 474kts
25-May-19 23:12 34.236352 -92.174089 63 37126ft 473kts
25-May-19 23:13 34.289651 -92.028846 63 37132ft 473kts
25-May-19 23:14 34.342600 -91.883907 63 37138ft 473kts
25-May-19 23:15 34.395661 -91.738007 63 37138ft 473kts
25-May-19 23:16 34.448459 -91.592167 63 37141ft 474kts
25-May-19 23:17 34.501323 -91.445479 63 37138ft 475kts
25-May-19 23:18 34.553827 -91.299123 64 37132ft 475kts
25-May-19 23:19 34.606351 -91.152040 64 37135ft 475kts
25-May-19 23:20 34.658782 -91.004527 64 37143ft 476kts
25-May-19 23:21 34.710839 -90.857363 64 37147ft 475kts
25-May-19 23:22 34.762866 -90.709631 64 37143ft 475kts
25-May-19 23:23 34.814635 -90.561922 64 37139ft 475kts
25-May-19 23:24 34.866128 -90.414311 64 37134ft 476kts
25-May-19 23:25 34.917722 -90.265715 64 37125ft 476kts
25-May-19 23:26 34.968971 -90.117399 64 37124ft 476kts
25-May-19 23:27 35.020533 -89.968245 63 37136ft 474kts
25-May-19 23:28 35.073299 -89.821188 63 37136ft 475kts
25-May-19 23:29 35.126235 -89.673034 64 37138ft 476kts
25-May-19 23:30 35.179143 -89.524247 64 37139ft 476kts
25-May-19 23:31 35.231461 -89.376399 63 37142ft 475kts
25-May-19 23:32 35.283892 -89.227569 64 37136ft 476kts
25-May-19 23:33 35.335910 -89.079185 64 37136ft 476kts
25-May-19 23:34 35.387915 -88.930128 64 37140ft 476kts
25-May-19 23:35 35.439653 -88.781122 64 37143ft 476kts
25-May-19 23:36 35.491249 -88.631810 64 37142ft 476kts
25-May-19 23:37 35.542729 -88.482093 64 37139ft 477kts
25-May-19 23:38 35.592982 -88.334276 65 37136ft 477kts
25-May-19 23:39 35.643684 -88.183758 65 37136ft 478kts
25-May-19 23:40 35.694214 -88.033005 65 37138ft 478kts
25-May-19 23:41 35.744640 -87.881811 65 37151ft 478kts
25-May-19 23:42 35.794853 -87.730495 65 37156ft 478kts
25-May-19 23:43 35.844790 -87.579227 65 37158ft 477kts
25-May-19 23:44 35.894682 -87.428170 65 37156ft 476kts
25-May-19 23:45 35.944551 -87.276680 65 37147ft 475kts
25-May-19 23:46 35.994008 -87.125674 65 37145ft 475kts
25-May-19 23:47 36.043469 -86.973903 65 37145ft 477kts
25-May-19 23:48 36.092746 -86.821859 65 37146ft 477kts
25-May-19 23:49 36.141798 -86.669965 65 37149ft 476kts
25-May-19 23:50 36.190982 -86.518435 65 37150ft 475kts
25-May-19 23:51 36.239953 -86.366790 65 37151ft 473kts
25-May-19 23:52 36.288674 -86.215138 65 37145ft 473kts
25-May-19 23:53 36.337051 -86.063782 65 37160ft 472kts
25-May-19 23:54 36.385380 -85.911781 65 37190ft 473kts
25-May-19 23:55 36.433360 -85.760090 65 37193ft 473kts
25-May-19 23:57 36.481183 -85.608094 65 37195ft 475kts
25-May-19 23:58 36.529049 -85.455163 65 37186ft 475kts
25-May-19 23:59 36.576831 -85.301701 66 37168ft 476kts
26-May-19 00:00 36.624410 -85.148020 66 37163ft 476kts
26-May-19 00:01 36.671756 -84.994274 66 37183ft 476kts
26-May-19 00:02 36.718932 -84.840255 66 37192ft 476kts
26-May-19 00:03 36.765785 -84.686435 66 37193ft 476kts
26-May-19 00:04 36.812648 -84.531742 66 37194ft 476kts
26-May-19 00:05 36.859288 -84.376923 66 37195ft 477kts
26-May-19 00:06 36.905648 -84.222187 67 37189ft 477kts
26-May-19 00:07 36.951999 -84.066593 67 37213ft 477kts
26-May-19 00:08 36.998090 -83.911002 67 37228ft 478kts
26-May-19 00:09 37.044130 -83.754705 67 37229ft 478kts
26-May-19 00:10 37.089867 -83.598557 67 37230ft 479kts
26-May-19 00:11 37.134399 -83.445648 67 37230ft 479kts
26-May-19 00:12 37.179955 -83.288335 67 37207ft 480kts
26-May-19 00:13 37.225285 -83.130893 67 37202ft 480kts
26-May-19 00:14 37.270486 -82.972977 67 37189ft 480kts
26-May-19 00:15 37.315216 -82.815781 67 37193ft 480kts
26-May-19 00:16 37.359983 -82.657524 67 37197ft 479kts
26-May-19 00:17 37.404292 -82.499922 67 37196ft 480kts
26-May-19 00:17 37.441286 -82.367644 67 37196ft 481kts
26-May-19 00:19 37.492752 -82.182539 68 37190ft 481kts
26-May-19 00:20 37.536717 -82.023377 68 37199ft 481kts
26-May-19 00:20 37.573274 -81.890304 68 37231ft 482kts
26-May-19 00:22 37.624167 -81.703891 68 37249ft 482kts
26-May-19 00:22 37.660459 -81.570130 68 37250ft 482kts
26-May-19 00:23 37.703814 -81.409402 68 37251ft 483kts
26-May-19 00:24 37.746534 -81.250122 69 37244ft 482kts
26-May-19 00:25 37.791883 -81.090629 62 37238ft 481kts
26-May-19 00:26 37.846678 -80.935953 63 37225ft 482kts
26-May-19 00:27 37.901362 -80.781435 62 37232ft 482kts
26-May-19 00:28 37.956373 -80.626548 62 37229ft 483kts
26-May-19 00:29 38.011270 -80.471143 62 37231ft 485kts
26-May-19 00:30 38.065886 -80.315910 63 37226ft 486kts
26-May-19 00:31 38.120770 -80.160695 62 37227ft 485kts
26-May-19 00:32 38.176008 -80.004794 62 37254ft 485kts
26-May-19 00:33 38.231192 -79.848188 62 37271ft 480kts
26-May-19 00:34 38.285420 -79.693016 63 37251ft 480kts
26-May-19 00:35 38.339040 -79.537088 63 37215ft 481kts
26-May-19 00:36 38.392630 -79.380410 62 37181ft 482kts
26-May-19 00:37 38.434988 -79.223834 75 35893ft 477kts
26-May-19 00:38 38.462681 -79.066544 75 33729ft 440kts
26-May-19 00:39 38.489284 -78.913754 75 31647ft 443kts
26-May-19 00:40 38.514620 -78.759454 76 29565ft 444kts
26-May-19 00:41 38.538986 -78.605313 75 27495ft 442kts
26-May-19 00:42 38.563400 -78.451725 75 25428ft 439kts
26-May-19 00:43 38.587251 -78.309625 74 23333ft 435kts
26-May-19 00:44 38.624484 -78.165027 63 20924ft 425kts
26-May-19 00:45 38.668914 -78.027200 63 18497ft 409kts
26-May-19 00:46 38.710696 -77.896799 63 17000ft 370kts
26-May-19 00:47 38.756493 -77.793939 42 16999ft 303kts
26-May-19 00:48 38.808457 -77.718594 40 16998ft 262kts
26-May-19 00:49 38.854198 -77.650809 41 16124ft 264kts
26-May-19 00:50 38.905572 -77.573457 43 13279ft 300kts
26-May-19 00:51 38.953918 -77.484184 62 10618ft 315kts
26-May-19 00:52 38.988102 -77.381928 62 8415ft 299kts
26-May-19 00:53 39.019941 -77.286791 62 7055ft 285kts
26-May-19 00:54 39.001851 -77.198875 139 5425ft 281kts
26-May-19 00:55 38.973994 -77.162178 137 4331ft 246kts
26-May-19 00:56 38.930302 -77.116450 148 2812ft 176kts
26-May-19 00:57 38.903896 -77.079012 112 1512ft 137kts
26-May-19 00:58 38.898596 -77.066128 138 1097ft 131kts
26-May-19 00:59 38.873097 -77.039548 178 390ft 121kts
26-May-19 01:00 38.847542 -77.037451 200 21ft 14kts
26-May-19 01:01 38.847167 -77.039065 247 21ft 0kts
26-May-19 01:02 38.847165 -77.039072 246 21ft 0kts
26-May-19 01:03 38.845505 -77.040600 251 21ft 18kts
26-May-19 01:04 38.846126 -77.045795 349 21ft 7kts
26-May-19 01:05 38.846157 -77.046149 231 21ft 0kts
26-May-19 01:06 38.846157 -77.046149 231 21ft 0kts
26-May-19 01:07 38.846157 -77.046148 231 21ft 0kts
26-May-19 01:08 38.846157 -77.046148 231 21ft 0kts
26-May-19 01:09 38.846157 -77.046148 231 21ft 0kts
26-May-19 01:10 38.846157 -77.046148 231 21ft 0kts
26-May-19 01:11 38.846157 -77.046148 231 21ft 0kts
26-May-19 01:12 38.846157 -77.046148 231 21ft 0kts
26-May-19 01:13 38.846157 -77.046148 231 21ft 0kts

Navigation Log

Ident Type
Flight plan parsing failed, navigation log unavailable